sensor_id;sensor_type;location;lat;lon;timestamp;pressure;altitude;pressure_sealevel;temperature
15575;BMP180;7888;46.748;8.102;2023-02-11T00:00:39;95884.00;;;5.60
15575;BMP180;7888;46.748;8.102;2023-02-11T00:03:05;95875.00;;;5.60
15575;BMP180;7888;46.748;8.102;2023-02-11T00:05:31;95879.00;;;5.50
15575;BMP180;7888;46.748;8.102;2023-02-11T00:07:56;95867.00;;;5.50
15575;BMP180;7888;46.748;8.102;2023-02-11T00:10:22;95865.00;;;5.50
15575;BMP180;7888;46.748;8.102;2023-02-11T00:12:48;95865.00;;;5.50
15575;BMP180;7888;46.748;8.102;2023-02-11T00:15:14;95866.00;;;5.50
15575;BMP180;7888;46.748;8.102;2023-02-11T00:17:39;95856.00;;;5.40
15575;BMP180;7888;46.748;8.102;2023-02-11T00:20:06;95857.00;;;5.40
15575;BMP180;7888;46.748;8.102;2023-02-11T00:22:31;95855.00;;;5.40
15575;BMP180;7888;46.748;8.102;2023-02-11T00:24:57;95845.00;;;5.40
15575;BMP180;7888;46.748;8.102;2023-02-11T00:27:23;95825.00;;;5.40
15575;BMP180;7888;46.748;8.102;2023-02-11T00:29:49;95835.00;;;5.40
15575;BMP180;7888;46.748;8.102;2023-02-11T00:32:15;95825.00;;;5.40
15575;BMP180;7888;46.748;8.102;2023-02-11T00:34:40;95829.00;;;5.30
15575;BMP180;7888;46.748;8.102;2023-02-11T00:37:06;95833.00;;;5.30
15575;BMP180;7888;46.748;8.102;2023-02-11T00:39:32;95830.00;;;5.30
15575;BMP180;7888;46.748;8.102;2023-02-11T00:41:58;95820.00;;;5.30
15575;BMP180;7888;46.748;8.102;2023-02-11T00:44:24;95819.00;;;5.30
15575;BMP180;7888;46.748;8.102;2023-02-11T00:46:50;95831.00;;;5.30
15575;BMP180;7888;46.748;8.102;2023-02-11T00:49:16;95827.00;;;5.30
15575;BMP180;7888;46.748;8.102;2023-02-11T00:51:42;95824.00;;;5.30
15575;BMP180;7888;46.748;8.102;2023-02-11T00:54:07;95817.00;;;5.30
15575;BMP180;7888;46.748;8.102;2023-02-11T00:56:33;95811.00;;;5.30
15575;BMP180;7888;46.748;8.102;2023-02-11T00:58:59;95810.00;;;5.30
15575;BMP180;7888;46.748;8.102;2023-02-11T01:01:26;95819.00;;;5.30
15575;BMP180;7888;46.748;8.102;2023-02-11T01:03:52;95806.00;;;5.30
15575;BMP180;7888;46.748;8.102;2023-02-11T01:06:18;95822.00;;;5.20
15575;BMP180;7888;46.748;8.102;2023-02-11T01:08:44;95821.00;;;5.20
15575;BMP180;7888;46.748;8.102;2023-02-11T01:11:15;95813.00;;;5.20
15575;BMP180;7888;46.748;8.102;2023-02-11T01:13:42;95798.00;;;5.20
15575;BMP180;7888;46.748;8.102;2023-02-11T01:16:09;95802.00;;;5.20
15575;BMP180;7888;46.748;8.102;2023-02-11T01:18:36;95784.00;;;5.20
15575;BMP180;7888;46.748;8.102;2023-02-11T01:21:02;95772.00;;;5.10
15575;BMP180;7888;46.748;8.102;2023-02-11T01:23:28;95796.00;;;5.10
15575;BMP180;7888;46.748;8.102;2023-02-11T01:25:55;95794.00;;;5.10
15575;BMP180;7888;46.748;8.102;2023-02-11T01:28:24;95777.00;;;5.10
15575;BMP180;7888;46.748;8.102;2023-02-11T01:30:51;95785.00;;;5.10
15575;BMP180;7888;46.748;8.102;2023-02-11T01:33:18;95784.00;;;5.10
15575;BMP180;7888;46.748;8.102;2023-02-11T01:35:44;95780.00;;;5.10
15575;BMP180;7888;46.748;8.102;2023-02-11T01:38:25;95777.00;;;5.00
15575;BMP180;7888;46.748;8.102;2023-02-11T01:41:04;95764.00;;;5.00
15575;BMP180;7888;46.748;8.102;2023-02-11T01:43:35;95772.00;;;5.00
15575;BMP180;7888;46.748;8.102;2023-02-11T01:49:22;95775.00;;;4.90
15575;BMP180;7888;46.748;8.102;2023-02-11T01:52:02;95784.00;;;4.90
15575;BMP180;7888;46.748;8.102;2023-02-11T01:54:45;95784.00;;;4.90
15575;BMP180;7888;46.748;8.102;2023-02-11T01:57:34;95775.00;;;4.90
15575;BMP180;7888;46.748;8.102;2023-02-11T02:00:17;95768.00;;;4.90
15575;BMP180;7888;46.748;8.102;2023-02-11T02:05:42;95758.00;;;4.90
15575;BMP180;7888;46.748;8.102;2023-02-11T02:10:51;95745.00;;;4.80
15575;BMP180;7888;46.748;8.102;2023-02-11T02:13:24;95755.00;;;4.80
15575;BMP180;7888;46.748;8.102;2023-02-11T02:16:00;95753.00;;;4.70
15575;BMP180;7888;46.748;8.102;2023-02-11T02:18:53;95741.00;;;4.70
15575;BMP180;7888;46.748;8.102;2023-02-11T02:21:57;95737.00;;;4.70
15575;BMP180;7888;46.748;8.102;2023-02-11T02:27:59;95743.00;;;4.60
15575;BMP180;7888;46.748;8.102;2023-02-11T02:30:38;95738.00;;;4.60
15575;BMP180;7888;46.748;8.102;2023-02-11T02:36:48;95738.00;;;4.50
15575;BMP180;7888;46.748;8.102;2023-02-11T02:39:32;95722.00;;;4.50
15575;BMP180;7888;46.748;8.102;2023-02-11T02:41:59;95718.00;;;4.50
15575;BMP180;7888;46.748;8.102;2023-02-11T02:44:27;95727.00;;;4.50
15575;BMP180;7888;46.748;8.102;2023-02-11T02:46:52;95711.00;;;4.60
15575;BMP180;7888;46.748;8.102;2023-02-11T02:49:18;95727.00;;;4.60
15575;BMP180;7888;46.748;8.102;2023-02-11T02:55:11;95717.00;;;4.50
15575;BMP180;7888;46.748;8.102;2023-02-11T03:00:40;95722.00;;;4.50
15575;BMP180;7888;46.748;8.102;2023-02-11T03:03:28;95724.00;;;4.50
15575;BMP180;7888;46.748;8.102;2023-02-11T03:06:16;95724.00;;;4.50
15575;BMP180;7888;46.748;8.102;2023-02-11T03:09:07;95706.00;;;4.40
15575;BMP180;7888;46.748;8.102;2023-02-11T03:11:38;95696.00;;;4.40
15575;BMP180;7888;46.748;8.102;2023-02-11T03:14:10;95717.00;;;4.50
15575;BMP180;7888;46.748;8.102;2023-02-11T03:16:38;95698.00;;;4.40
15575;BMP180;7888;46.748;8.102;2023-02-11T03:19:19;95714.00;;;4.40
15575;BMP180;7888;46.748;8.102;2023-02-11T03:21:49;95724.00;;;4.40
15575;BMP180;7888;46.748;8.102;2023-02-11T03:24:38;95719.00;;;4.40
15575;BMP180;7888;46.748;8.102;2023-02-11T03:27:33;95715.00;;;4.40
15575;BMP180;7888;46.748;8.102;2023-02-11T03:35:58;95707.00;;;4.40
15575;BMP180;7888;46.748;8.102;2023-02-11T03:38:35;95705.00;;;4.40
15575;BMP180;7888;46.748;8.102;2023-02-11T03:41:06;95698.00;;;4.40
15575;BMP180;7888;46.748;8.102;2023-02-11T03:43:39;95699.00;;;4.40
15575;BMP180;7888;46.748;8.102;2023-02-11T03:46:08;95691.00;;;4.40
15575;BMP180;7888;46.748;8.102;2023-02-11T03:48:43;95703.00;;;4.40
15575;BMP180;7888;46.748;8.102;2023-02-11T03:51:11;95696.00;;;4.40
15575;BMP180;7888;46.748;8.102;2023-02-11T03:53:42;95689.00;;;4.30
15575;BMP180;7888;46.748;8.102;2023-02-11T03:56:20;95698.00;;;4.30
15575;BMP180;7888;46.748;8.102;2023-02-11T03:58:48;95696.00;;;4.30
15575;BMP180;7888;46.748;8.102;2023-02-11T04:01:15;95691.00;;;4.30
15575;BMP180;7888;46.748;8.102;2023-02-11T04:03:40;95683.00;;;4.20
15575;BMP180;7888;46.748;8.102;2023-02-11T04:06:07;95693.00;;;4.20
15575;BMP180;7888;46.748;8.102;2023-02-11T04:08:33;95676.00;;;4.20
15575;BMP180;7888;46.748;8.102;2023-02-11T04:10:59;95693.00;;;4.20
15575;BMP180;7888;46.748;8.102;2023-02-11T04:13:25;95685.00;;;4.20
15575;BMP180;7888;46.748;8.102;2023-02-11T04:15:51;95689.00;;;4.20
15575;BMP180;7888;46.748;8.102;2023-02-11T04:18:16;95680.00;;;4.20
15575;BMP180;7888;46.748;8.102;2023-02-11T04:20:42;95680.00;;;4.20
15575;BMP180;7888;46.748;8.102;2023-02-11T04:23:08;95681.00;;;4.20
15575;BMP180;7888;46.748;8.102;2023-02-11T04:25:35;95686.00;;;4.20
15575;BMP180;7888;46.748;8.102;2023-02-11T04:28:01;95685.00;;;4.20
15575;BMP180;7888;46.748;8.102;2023-02-11T04:30:26;95677.00;;;4.20
15575;BMP180;7888;46.748;8.102;2023-02-11T04:32:52;95676.00;;;4.20
15575;BMP180;7888;46.748;8.102;2023-02-11T04:35:19;95663.00;;;4.20
15575;BMP180;7888;46.748;8.102;2023-02-11T04:37:45;95671.00;;;4.20
15575;BMP180;7888;46.748;8.102;2023-02-11T04:40:11;95679.00;;;4.20
15575;BMP180;7888;46.748;8.102;2023-02-11T04:42:37;95679.00;;;4.20
15575;BMP180;7888;46.748;8.102;2023-02-11T04:45:04;95671.00;;;4.20
15575;BMP180;7888;46.748;8.102;2023-02-11T04:47:30;95672.00;;;4.10
15575;BMP180;7888;46.748;8.102;2023-02-11T04:49:55;95668.00;;;4.10
15575;BMP180;7888;46.748;8.102;2023-02-11T04:52:21;95663.00;;;4.10
15575;BMP180;7888;46.748;8.102;2023-02-11T04:54:47;95666.00;;;4.10
15575;BMP180;7888;46.748;8.102;2023-02-11T04:57:13;95675.00;;;4.10
15575;BMP180;7888;46.748;8.102;2023-02-11T04:59:38;95661.00;;;4.10
15575;BMP180;7888;46.748;8.102;2023-02-11T05:02:05;95663.00;;;4.10
15575;BMP180;7888;46.748;8.102;2023-02-11T05:04:31;95657.00;;;4.10
15575;BMP180;7888;46.748;8.102;2023-02-11T05:06:57;95653.00;;;4.10
15575;BMP180;7888;46.748;8.102;2023-02-11T05:09:23;95664.00;;;4.10
15575;BMP180;7888;46.748;8.102;2023-02-11T05:11:49;95662.00;;;4.00
15575;BMP180;7888;46.748;8.102;2023-02-11T05:14:14;95661.00;;;4.00
15575;BMP180;7888;46.748;8.102;2023-02-11T05:16:40;95655.00;;;4.00
15575;BMP180;7888;46.748;8.102;2023-02-11T05:19:06;95655.00;;;4.00
15575;BMP180;7888;46.748;8.102;2023-02-11T05:21:32;95655.00;;;4.00
15575;BMP180;7888;46.748;8.102;2023-02-11T05:23:58;95654.00;;;4.00
15575;BMP180;7888;46.748;8.102;2023-02-11T05:26:24;95649.00;;;4.00
15575;BMP180;7888;46.748;8.102;2023-02-11T05:28:50;95650.00;;;4.00
15575;BMP180;7888;46.748;8.102;2023-02-11T05:31:16;95635.00;;;4.00
15575;BMP180;7888;46.748;8.102;2023-02-11T05:33:42;95654.00;;;4.00
15575;BMP180;7888;46.748;8.102;2023-02-11T05:36:11;95643.00;;;4.00
15575;BMP180;7888;46.748;8.102;2023-02-11T05:38:38;95650.00;;;4.00
15575;BMP180;7888;46.748;8.102;2023-02-11T05:41:05;95648.00;;;4.00
15575;BMP180;7888;46.748;8.102;2023-02-11T05:43:32;95645.00;;;4.00
15575;BMP180;7888;46.748;8.102;2023-02-11T05:45:59;95643.00;;;4.00
15575;BMP180;7888;46.748;8.102;2023-02-11T05:48:25;95640.00;;;4.00
15575;BMP180;7888;46.748;8.102;2023-02-11T05:50:51;95634.00;;;4.00
15575;BMP180;7888;46.748;8.102;2023-02-11T05:53:17;95644.00;;;4.00
15575;BMP180;7888;46.748;8.102;2023-02-11T05:55:43;95648.00;;;4.00
15575;BMP180;7888;46.748;8.102;2023-02-11T05:58:09;95642.00;;;4.00
15575;BMP180;7888;46.748;8.102;2023-02-11T06:00:35;95650.00;;;4.00
15575;BMP180;7888;46.748;8.102;2023-02-11T06:03:01;95643.00;;;4.00
15575;BMP180;7888;46.748;8.102;2023-02-11T06:05:29;95649.00;;;4.00
15575;BMP180;7888;46.748;8.102;2023-02-11T06:07:55;95651.00;;;4.00
15575;BMP180;7888;46.748;8.102;2023-02-11T06:10:21;95644.00;;;4.00
15575;BMP180;7888;46.748;8.102;2023-02-11T06:12:47;95652.00;;;4.00
15575;BMP180;7888;46.748;8.102;2023-02-11T06:15:12;95650.00;;;4.00
15575;BMP180;7888;46.748;8.102;2023-02-11T06:17:38;95639.00;;;4.00
15575;BMP180;7888;46.748;8.102;2023-02-11T06:20:07;95645.00;;;4.00
15575;BMP180;7888;46.748;8.102;2023-02-11T06:22:33;95645.00;;;4.00
15575;BMP180;7888;46.748;8.102;2023-02-11T06:24:59;95649.00;;;4.00
15575;BMP180;7888;46.748;8.102;2023-02-11T06:27:25;95651.00;;;4.00
15575;BMP180;7888;46.748;8.102;2023-02-11T06:29:50;95641.00;;;4.00
15575;BMP180;7888;46.748;8.102;2023-02-11T06:32:19;95656.00;;;4.00
15575;BMP180;7888;46.748;8.102;2023-02-11T06:34:45;95653.00;;;4.00
15575;BMP180;7888;46.748;8.102;2023-02-11T06:37:11;95640.00;;;4.00
15575;BMP180;7888;46.748;8.102;2023-02-11T06:39:37;95628.00;;;4.00
15575;BMP180;7888;46.748;8.102;2023-02-11T06:42:03;95635.00;;;4.00
15575;BMP180;7888;46.748;8.102;2023-02-11T06:44:29;95637.00;;;4.00
15575;BMP180;7888;46.748;8.102;2023-02-11T06:46:54;95642.00;;;4.00
15575;BMP180;7888;46.748;8.102;2023-02-11T06:49:20;95652.00;;;4.00
15575;BMP180;7888;46.748;8.102;2023-02-11T06:51:46;95656.00;;;4.00
15575;BMP180;7888;46.748;8.102;2023-02-11T06:54:12;95662.00;;;4.00
15575;BMP180;7888;46.748;8.102;2023-02-11T06:56:40;95669.00;;;4.00
15575;BMP180;7888;46.748;8.102;2023-02-11T06:59:07;95669.00;;;4.00
15575;BMP180;7888;46.748;8.102;2023-02-11T07:01:32;95669.00;;;4.00
15575;BMP180;7888;46.748;8.102;2023-02-11T07:03:58;95672.00;;;4.00
15575;BMP180;7888;46.748;8.102;2023-02-11T07:06:25;95677.00;;;3.90
15575;BMP180;7888;46.748;8.102;2023-02-11T07:08:53;95671.00;;;3.90
15575;BMP180;7888;46.748;8.102;2023-02-11T07:11:29;95680.00;;;3.90
15575;BMP180;7888;46.748;8.102;2023-02-11T07:14:03;95685.00;;;3.80
15575;BMP180;7888;46.748;8.102;2023-02-11T07:16:30;95685.00;;;3.90
15575;BMP180;7888;46.748;8.102;2023-02-11T07:18:56;95689.00;;;3.90
15575;BMP180;7888;46.748;8.102;2023-02-11T07:21:22;95691.00;;;3.90
15575;BMP180;7888;46.748;8.102;2023-02-11T07:23:51;95681.00;;;3.90
15575;BMP180;7888;46.748;8.102;2023-02-11T07:26:21;95698.00;;;4.00
15575;BMP180;7888;46.748;8.102;2023-02-11T07:28:49;95693.00;;;4.00
15575;BMP180;7888;46.748;8.102;2023-02-11T07:31:18;95695.00;;;4.00
15575;BMP180;7888;46.748;8.102;2023-02-11T07:33:45;95696.00;;;4.10
15575;BMP180;7888;46.748;8.102;2023-02-11T07:36:13;95696.00;;;4.10
15575;BMP180;7888;46.748;8.102;2023-02-11T07:38:39;95700.00;;;4.20
15575;BMP180;7888;46.748;8.102;2023-02-11T07:41:09;95709.00;;;4.20
15575;BMP180;7888;46.748;8.102;2023-02-11T07:43:37;95696.00;;;4.20
15575;BMP180;7888;46.748;8.102;2023-02-11T07:46:19;95707.00;;;4.30
15575;BMP180;7888;46.748;8.102;2023-02-11T07:48:47;95714.00;;;4.30
15575;BMP180;7888;46.748;8.102;2023-02-11T07:53:44;95708.00;;;4.40
15575;BMP180;7888;46.748;8.102;2023-02-11T07:56:12;95702.00;;;4.50
15575;BMP180;7888;46.748;8.102;2023-02-11T07:58:39;95700.00;;;4.60
15575;BMP180;7888;46.748;8.102;2023-02-11T08:01:10;95720.00;;;4.60
15575;BMP180;7888;46.748;8.102;2023-02-11T08:03:38;95717.00;;;4.70
15575;BMP180;7888;46.748;8.102;2023-02-11T08:06:07;95720.00;;;4.70
15575;BMP180;7888;46.748;8.102;2023-02-11T08:08:33;95711.00;;;4.80
15575;BMP180;7888;46.748;8.102;2023-02-11T08:11:06;95723.00;;;4.90
15575;BMP180;7888;46.748;8.102;2023-02-11T08:13:33;95724.00;;;4.90
15575;BMP180;7888;46.748;8.102;2023-02-11T08:15:59;95719.00;;;5.00
15575;BMP180;7888;46.748;8.102;2023-02-11T08:18:25;95717.00;;;5.10
15575;BMP180;7888;46.748;8.102;2023-02-11T08:20:50;95715.00;;;5.20
15575;BMP180;7888;46.748;8.102;2023-02-11T08:23:16;95707.00;;;5.30
15575;BMP180;7888;46.748;8.102;2023-02-11T08:25:42;95715.00;;;5.40
15575;BMP180;7888;46.748;8.102;2023-02-11T08:28:08;95716.00;;;5.50
15575;BMP180;7888;46.748;8.102;2023-02-11T08:30:34;95723.00;;;5.60
15575;BMP180;7888;46.748;8.102;2023-02-11T08:33:00;95720.00;;;5.70
15575;BMP180;7888;46.748;8.102;2023-02-11T08:35:26;95710.00;;;5.70
15575;BMP180;7888;46.748;8.102;2023-02-11T08:37:53;95715.00;;;5.80
15575;BMP180;7888;46.748;8.102;2023-02-11T08:40:19;95707.00;;;5.90
15575;BMP180;7888;46.748;8.102;2023-02-11T08:42:45;95709.00;;;6.00
15575;BMP180;7888;46.748;8.102;2023-02-11T08:45:11;95721.00;;;6.10
15575;BMP180;7888;46.748;8.102;2023-02-11T08:47:38;95716.00;;;6.30
15575;BMP180;7888;46.748;8.102;2023-02-11T08:50:04;95714.00;;;6.40
15575;BMP180;7888;46.748;8.102;2023-02-11T08:52:30;95696.00;;;6.50
15575;BMP180;7888;46.748;8.102;2023-02-11T08:54:56;95720.00;;;6.70
15575;BMP180;7888;46.748;8.102;2023-02-11T08:57:23;95717.00;;;6.80
15575;BMP180;7888;46.748;8.102;2023-02-11T08:59:49;95731.00;;;7.00
15575;BMP180;7888;46.748;8.102;2023-02-11T09:02:14;95728.00;;;7.10
15575;BMP180;7888;46.748;8.102;2023-02-11T09:04:40;95718.00;;;7.20
15575;BMP180;7888;46.748;8.102;2023-02-11T09:07:06;95721.00;;;7.30
15575;BMP180;7888;46.748;8.102;2023-02-11T09:09:32;95731.00;;;7.50
15575;BMP180;7888;46.748;8.102;2023-02-11T09:11:58;95741.00;;;7.60
15575;BMP180;7888;46.748;8.102;2023-02-11T09:14:26;95732.00;;;7.70
15575;BMP180;7888;46.748;8.102;2023-02-11T09:16:52;95736.00;;;7.80
15575;BMP180;7888;46.748;8.102;2023-02-11T09:19:19;95749.00;;;7.90
15575;BMP180;7888;46.748;8.102;2023-02-11T09:21:46;95728.00;;;8.00
15575;BMP180;7888;46.748;8.102;2023-02-11T09:24:12;95734.00;;;8.10
15575;BMP180;7888;46.748;8.102;2023-02-11T09:26:40;95738.00;;;8.20
15575;BMP180;7888;46.748;8.102;2023-02-11T09:29:06;95739.00;;;8.30
15575;BMP180;7888;46.748;8.102;2023-02-11T09:31:33;95734.00;;;8.40
15575;BMP180;7888;46.748;8.102;2023-02-11T09:34:04;95747.00;;;8.50
15575;BMP180;7888;46.748;8.102;2023-02-11T09:36:35;95742.00;;;8.60
15575;BMP180;7888;46.748;8.102;2023-02-11T09:39:11;95753.00;;;8.60
15575;BMP180;7888;46.748;8.102;2023-02-11T09:42:06;95755.00;;;8.70
15575;BMP180;7888;46.748;8.102;2023-02-11T09:44:37;95754.00;;;8.80
15575;BMP180;7888;46.748;8.102;2023-02-11T09:47:27;95776.00;;;8.90
15575;BMP180;7888;46.748;8.102;2023-02-11T09:55:32;95779.00;;;9.30
15575;BMP180;7888;46.748;8.102;2023-02-11T09:58:06;95790.00;;;9.50
15575;BMP180;7888;46.748;8.102;2023-02-11T10:23:56;95796.00;;;10.30
15575;BMP180;7888;46.748;8.102;2023-02-11T10:26:29;95800.00;;;10.40
15575;BMP180;7888;46.748;8.102;2023-02-11T10:29:01;95795.00;;;10.50
15575;BMP180;7888;46.748;8.102;2023-02-11T10:31:49;95790.00;;;10.60
15575;BMP180;7888;46.748;8.102;2023-02-11T10:34:15;95792.00;;;10.80
15575;BMP180;7888;46.748;8.102;2023-02-11T10:36:43;95786.00;;;10.90
15575;BMP180;7888;46.748;8.102;2023-02-11T10:39:20;95787.00;;;11.00
15575;BMP180;7888;46.748;8.102;2023-02-11T10:42:04;95791.00;;;11.10
15575;BMP180;7888;46.748;8.102;2023-02-11T10:44:36;95777.00;;;11.30
15575;BMP180;7888;46.748;8.102;2023-02-11T10:47:32;95775.00;;;11.40
15575;BMP180;7888;46.748;8.102;2023-02-11T10:49:57;95772.00;;;11.50
15575;BMP180;7888;46.748;8.102;2023-02-11T10:52:29;95763.00;;;11.60
15575;BMP180;7888;46.748;8.102;2023-02-11T10:57:32;95742.00;;;11.80
15575;BMP180;7888;46.748;8.102;2023-02-11T11:02:43;95755.00;;;12.00
15575;BMP180;7888;46.748;8.102;2023-02-11T11:05:20;95752.00;;;12.00
15575;BMP180;7888;46.748;8.102;2023-02-11T11:07:59;95743.00;;;12.00
15575;BMP180;7888;46.748;8.102;2023-02-11T11:13:35;95734.00;;;12.10
15575;BMP180;7888;46.748;8.102;2023-02-11T11:18:40;95730.00;;;12.30
15575;BMP180;7888;46.748;8.102;2023-02-11T11:21:32;95739.00;;;12.30
15575;BMP180;7888;46.748;8.102;2023-02-11T11:24:01;95731.00;;;12.50
15575;BMP180;7888;46.748;8.102;2023-02-11T11:26:43;95723.00;;;12.50
15575;BMP180;7888;46.748;8.102;2023-02-11T11:29:19;95718.00;;;12.70
15575;BMP180;7888;46.748;8.102;2023-02-11T11:32:04;95704.00;;;12.80
15575;BMP180;7888;46.748;8.102;2023-02-11T11:34:36;95711.00;;;13.10
15575;BMP180;7888;46.748;8.102;2023-02-11T11:37:19;95704.00;;;13.30
15575;BMP180;7888;46.748;8.102;2023-02-11T11:42:42;95698.00;;;13.60
15575;BMP180;7888;46.748;8.102;2023-02-11T11:48:17;95685.00;;;13.80
15575;BMP180;7888;46.748;8.102;2023-02-11T11:50:51;95681.00;;;14.00
15575;BMP180;7888;46.748;8.102;2023-02-11T11:53:34;95677.00;;;14.20
15575;BMP180;7888;46.748;8.102;2023-02-11T11:56:10;95677.00;;;14.50
15575;BMP180;7888;46.748;8.102;2023-02-11T11:58:37;95680.00;;;14.70
15575;BMP180;7888;46.748;8.102;2023-02-11T12:05:02;95662.00;;;14.90
15575;BMP180;7888;46.748;8.102;2023-02-11T12:10:55;95642.00;;;15.30
15575;BMP180;7888;46.748;8.102;2023-02-11T12:17:28;95639.00;;;15.50
15575;BMP180;7888;46.748;8.102;2023-02-11T12:19:56;95630.00;;;15.50
15575;BMP180;7888;46.748;8.102;2023-02-11T12:26:00;95628.00;;;15.40
15575;BMP180;7888;46.748;8.102;2023-02-11T12:35:06;95609.00;;;15.30
15575;BMP180;7888;46.748;8.102;2023-02-11T12:43:39;95616.00;;;15.40
15575;BMP180;7888;46.748;8.102;2023-02-11T12:46:33;95611.00;;;15.50
15575;BMP180;7888;46.748;8.102;2023-02-11T12:52:29;95609.00;;;15.60
15575;BMP180;7888;46.748;8.102;2023-02-11T12:55:39;95610.00;;;15.70
15575;BMP180;7888;46.748;8.102;2023-02-11T12:58:17;95605.00;;;15.70
15575;BMP180;7888;46.748;8.102;2023-02-11T13:00:57;95613.00;;;15.60
15575;BMP180;7888;46.748;8.102;2023-02-11T13:03:56;95604.00;;;15.40
15575;BMP180;7888;46.748;8.102;2023-02-11T13:06:34;95610.00;;;15.40
15575;BMP180;7888;46.748;8.102;2023-02-11T13:09:05;95611.00;;;15.40
15575;BMP180;7888;46.748;8.102;2023-02-11T13:11:40;95616.00;;;15.40
15575;BMP180;7888;46.748;8.102;2023-02-11T13:14:28;95613.00;;;15.30
15575;BMP180;7888;46.748;8.102;2023-02-11T13:16:55;95600.00;;;15.30
15575;BMP180;7888;46.748;8.102;2023-02-11T13:19:37;95594.00;;;15.30
15575;BMP180;7888;46.748;8.102;2023-02-11T13:22:26;95589.00;;;15.30
15575;BMP180;7888;46.748;8.102;2023-02-11T13:25:17;95587.00;;;15.30
15575;BMP180;7888;46.748;8.102;2023-02-11T13:30:50;95588.00;;;15.40
15575;BMP180;7888;46.748;8.102;2023-02-11T13:33:38;95585.00;;;15.30
15575;BMP180;7888;46.748;8.102;2023-02-11T13:38:34;95580.00;;;15.30
15575;BMP180;7888;46.748;8.102;2023-02-11T13:41:14;95587.00;;;15.20
15575;BMP180;7888;46.748;8.102;2023-02-11T13:43:41;95583.00;;;15.30
15575;BMP180;7888;46.748;8.102;2023-02-11T13:46:11;95580.00;;;15.40
15575;BMP180;7888;46.748;8.102;2023-02-11T13:48:50;95585.00;;;15.50
15575;BMP180;7888;46.748;8.102;2023-02-11T13:51:39;95563.00;;;15.70
15575;BMP180;7888;46.748;8.102;2023-02-11T13:54:08;95579.00;;;15.90
15575;BMP180;7888;46.748;8.102;2023-02-11T13:56:43;95580.00;;;16.10
15575;BMP180;7888;46.748;8.102;2023-02-11T14:02:25;95591.00;;;16.30
15575;BMP180;7888;46.748;8.102;2023-02-11T14:05:23;95602.00;;;16.40
15575;BMP180;7888;46.748;8.102;2023-02-11T14:11:03;95600.00;;;16.60
15575;BMP180;7888;46.748;8.102;2023-02-11T14:16:21;95597.00;;;16.80
15575;BMP180;7888;46.748;8.102;2023-02-11T14:21:21;95601.00;;;17.20
15575;BMP180;7888;46.748;8.102;2023-02-11T14:23:50;95586.00;;;17.30
15575;BMP180;7888;46.748;8.102;2023-02-11T14:38:23;95606.00;;;18.00
15575;BMP180;7888;46.748;8.102;2023-02-11T14:44:00;95607.00;;;18.20
15575;BMP180;7888;46.748;8.102;2023-02-11T14:46:29;95607.00;;;18.30
15575;BMP180;7888;46.748;8.102;2023-02-11T14:48:59;95603.00;;;18.30
15575;BMP180;7888;46.748;8.102;2023-02-11T14:51:34;95608.00;;;18.40
15575;BMP180;7888;46.748;8.102;2023-02-11T14:54:16;95611.00;;;18.50
15575;BMP180;7888;46.748;8.102;2023-02-11T14:56:43;95607.00;;;18.70
15575;BMP180;7888;46.748;8.102;2023-02-11T14:59:22;95608.00;;;18.70
15575;BMP180;7888;46.748;8.102;2023-02-11T15:01:52;95607.00;;;18.70
15575;BMP180;7888;46.748;8.102;2023-02-11T15:04:34;95598.00;;;18.70
15575;BMP180;7888;46.748;8.102;2023-02-11T15:07:07;95610.00;;;18.70
15575;BMP180;7888;46.748;8.102;2023-02-11T15:09:45;95608.00;;;18.70
15575;BMP180;7888;46.748;8.102;2023-02-11T15:12:27;95608.00;;;18.70
15575;BMP180;7888;46.748;8.102;2023-02-11T15:14:57;95617.00;;;18.80
15575;BMP180;7888;46.748;8.102;2023-02-11T15:17:30;95623.00;;;18.80
15575;BMP180;7888;46.748;8.102;2023-02-11T15:20:00;95622.00;;;18.80
15575;BMP180;7888;46.748;8.102;2023-02-11T15:22:33;95622.00;;;18.80
15575;BMP180;7888;46.748;8.102;2023-02-11T15:25:14;95623.00;;;18.80
15575;BMP180;7888;46.748;8.102;2023-02-11T15:32:56;95623.00;;;18.90
15575;BMP180;7888;46.748;8.102;2023-02-11T15:35:37;95614.00;;;18.90
15575;BMP180;7888;46.748;8.102;2023-02-11T15:38:06;95621.00;;;19.00
15575;BMP180;7888;46.748;8.102;2023-02-11T15:40:35;95618.00;;;19.00
15575;BMP180;7888;46.748;8.102;2023-02-11T15:43:08;95626.00;;;19.00
15575;BMP180;7888;46.748;8.102;2023-02-11T15:45:44;95633.00;;;19.10
15575;BMP180;7888;46.748;8.102;2023-02-11T15:48:35;95628.00;;;19.00
15575;BMP180;7888;46.748;8.102;2023-02-11T15:51:16;95630.00;;;18.90
15575;BMP180;7888;46.748;8.102;2023-02-11T15:53:49;95628.00;;;18.90
15575;BMP180;7888;46.748;8.102;2023-02-11T15:56:42;95632.00;;;18.70
15575;BMP180;7888;46.748;8.102;2023-02-11T15:59:18;95620.00;;;18.60
15575;BMP180;7888;46.748;8.102;2023-02-11T16:01:47;95627.00;;;18.50
15575;BMP180;7888;46.748;8.102;2023-02-11T16:04:21;95630.00;;;18.40
15575;BMP180;7888;46.748;8.102;2023-02-11T16:06:49;95641.00;;;18.30
15575;BMP180;7888;46.748;8.102;2023-02-11T16:14:34;95629.00;;;17.90
15575;BMP180;7888;46.748;8.102;2023-02-11T16:17:08;95639.00;;;17.90
15575;BMP180;7888;46.748;8.102;2023-02-11T16:19:40;95635.00;;;17.80
15575;BMP180;7888;46.748;8.102;2023-02-11T16:22:13;95639.00;;;17.70
15575;BMP180;7888;46.748;8.102;2023-02-11T16:24:40;95620.00;;;17.60
15575;BMP180;7888;46.748;8.102;2023-02-11T16:27:27;95631.00;;;17.40
15575;BMP180;7888;46.748;8.102;2023-02-11T16:29:56;95635.00;;;17.40
15575;BMP180;7888;46.748;8.102;2023-02-11T16:32:25;95627.00;;;17.20
15575;BMP180;7888;46.748;8.102;2023-02-11T16:34:56;95646.00;;;17.10
15575;BMP180;7888;46.748;8.102;2023-02-11T16:37:23;95639.00;;;17.00
15575;BMP180;7888;46.748;8.102;2023-02-11T16:39:53;95632.00;;;16.90
15575;BMP180;7888;46.748;8.102;2023-02-11T16:42:19;95633.00;;;16.80
15575;BMP180;7888;46.748;8.102;2023-02-11T16:44:45;95643.00;;;16.60
15575;BMP180;7888;46.748;8.102;2023-02-11T16:47:40;95633.00;;;16.40
15575;BMP180;7888;46.748;8.102;2023-02-11T16:50:19;95636.00;;;16.30
15575;BMP180;7888;46.748;8.102;2023-02-11T16:52:45;95635.00;;;16.20
15575;BMP180;7888;46.748;8.102;2023-02-11T16:55:12;95638.00;;;16.10
15575;BMP180;7888;46.748;8.102;2023-02-11T16:57:37;95637.00;;;16.00
15575;BMP180;7888;46.748;8.102;2023-02-11T17:00:06;95642.00;;;15.80
15575;BMP180;7888;46.748;8.102;2023-02-11T17:02:34;95645.00;;;15.70
15575;BMP180;7888;46.748;8.102;2023-02-11T17:05:04;95642.00;;;15.50
15575;BMP180;7888;46.748;8.102;2023-02-11T17:07:31;95642.00;;;15.30
15575;BMP180;7888;46.748;8.102;2023-02-11T17:09:57;95653.00;;;15.20
15575;BMP180;7888;46.748;8.102;2023-02-11T17:12:24;95650.00;;;15.10
15575;BMP180;7888;46.748;8.102;2023-02-11T17:14:51;95634.00;;;15.00
15575;BMP180;7888;46.748;8.102;2023-02-11T17:17:16;95656.00;;;14.90
15575;BMP180;7888;46.748;8.102;2023-02-11T17:19:42;95658.00;;;14.80